Calumet, MN (55716)

11:15 AM CDT on August 30, 2015 (GMT -0500)
Calumet, MN | | Change Station
CLOSE
Current Station
Personal Weather Station
Location: Bovey, MN
Elevation: 1381 ft
Nearby Weather Stations

Elev 1381 ft 47.32 °N, 93.28 °W | Updated 46 seconds ago

Mostly Cloudy
Mostly Cloudy
71.2 °F
Feels Like 71.2 °F
N
3.7
Wind Variable Wind from ESE

Today
High -- | Low -- °F
--% Chance of Precip.
Yesterday
High -- | Low -- °F
Precip. -- in
6:29 AM 7:57 PM
Full, 99% visible
Pressure 29.92 in
Visibility 10.0 miles
Clouds Scattered Clouds 900 ft
Dew Point 67 °F
Humidity 86%
Rainfall 0.00 in
Snow Depth Not available.
UV 5 out of 12
Pollen 11.20 out of 12
Air Quality Not available.
Flu Activity Not available.
SPECI KHIB 301607Z AUTO VRB05KT 10SM SCT009 21/17 A2992 RMK AO2 T02110172
Pressure 29.92 in
Visibility 10.0 miles
Clouds Scattered Clouds 900 ft
Dew Point 67 °F
Humidity 86%
Rainfall 0.00 in
Snow Depth Not available.
UV 5 out of 12
Pollen 11.20 out of 12
Air Quality Not available.
Flu Activity Not available.
SPECI KHIB 301607Z AUTO VRB05KT 10SM SCT009 21/17 A2992 RMK AO2 T02110172

10-Day Weather Forecast

×

Almanac

Astronomy

Aug. 30, 2015 Rise Set
Actual Time
Civil Twilight
Nautical Twilight
Astronomical Twilight
Moon
Length of Visible Light
Length of Day
Tomorrow will be .
, % of the Moon is Illuminated

Today's Extremes

State Highs State Lows

Community

WunderPhotos

Upload Photos

1,851,003 photos uploaded!

WunderBlogs® & News

Nearby

Air Quality

  Air Quality AQ Index Pollutant
Not available.

Snow Depth

Station Depth Elevation

Earthquake Activity

City Distance Mag. Time & Date
Minimum magnitude displayed is 2.5.

Coastal Water Temperatures

Place Temperature

Stations

Nearby Weather Stations

Station Location Temp. Windchill Dew Point Humidity Wind Precip. Elev Updated Type